sensor_id;sensor_type;location;lat;lon;timestamp;P1;durP1;ratioP1;P2;durP2;ratioP2
54235;SDS011;40151;43.606;1.472;2023-07-13T00:00:52;4.85;;;2.90;;
54235;SDS011;40151;43.606;1.472;2023-07-13T00:03:18;5.80;;;2.58;;
54235;SDS011;40151;43.606;1.472;2023-07-13T00:05:43;4.82;;;2.40;;
54235;SDS011;40151;43.606;1.472;2023-07-13T00:08:09;5.43;;;2.50;;
54235;SDS011;40151;43.606;1.472;2023-07-13T00:10:42;4.38;;;2.30;;
54235;SDS011;40151;43.606;1.472;2023-07-13T00:13:08;4.15;;;1.98;;
54235;SDS011;40151;43.606;1.472;2023-07-13T00:15:34;3.88;;;2.17;;
54235;SDS011;40151;43.606;1.472;2023-07-13T00:18:00;5.18;;;2.20;;
54235;SDS011;40151;43.606;1.472;2023-07-13T00:20:26;4.78;;;2.03;;
54235;SDS011;40151;43.606;1.472;2023-07-13T00:22:52;5.07;;;2.00;;
54235;SDS011;40151;43.606;1.472;2023-07-13T00:25:18;6.13;;;2.03;;
54235;SDS011;40151;43.606;1.472;2023-07-13T00:27:49;3.85;;;2.17;;
54235;SDS011;40151;43.606;1.472;2023-07-13T00:30:15;4.18;;;1.83;;
54235;SDS011;40151;43.606;1.472;2023-07-13T00:32:41;6.32;;;2.13;;
54235;SDS011;40151;43.606;1.472;2023-07-13T00:35:07;4.15;;;2.05;;
54235;SDS011;40151;43.606;1.472;2023-07-13T00:37:33;3.97;;;1.80;;
54235;SDS011;40151;43.606;1.472;2023-07-13T00:40:00;3.88;;;2.00;;
54235;SDS011;40151;43.606;1.472;2023-07-13T00:42:27;3.72;;;1.88;;
54235;SDS011;40151;43.606;1.472;2023-07-13T00:47:36;4.18;;;2.00;;
54235;SDS011;40151;43.606;1.472;2023-07-13T00:50:02;3.72;;;2.30;;
54235;SDS011;40151;43.606;1.472;2023-07-13T00:52:31;3.80;;;2.03;;
54235;SDS011;40151;43.606;1.472;2023-07-13T00:54:57;3.83;;;2.05;;
54235;SDS011;40151;43.606;1.472;2023-07-13T00:57:23;3.63;;;1.77;;
54235;SDS011;40151;43.606;1.472;2023-07-13T00:59:54;9.13;;;2.10;;
54235;SDS011;40151;43.606;1.472;2023-07-13T01:02:24;5.10;;;2.10;;
54235;SDS011;40151;43.606;1.472;2023-07-13T01:04:50;4.95;;;1.77;;
54235;SDS011;40151;43.606;1.472;2023-07-13T01:07:15;4.80;;;2.17;;
54235;SDS011;40151;43.606;1.472;2023-07-13T01:09:43;4.63;;;1.70;;
54235;SDS011;40151;43.606;1.472;2023-07-13T01:12:10;4.40;;;1.77;;
54235;SDS011;40151;43.606;1.472;2023-07-13T01:14:35;3.00;;;1.75;;
54235;SDS011;40151;43.606;1.472;2023-07-13T01:17:01;3.60;;;1.60;;
54235;SDS011;40151;43.606;1.472;2023-07-13T01:24:36;5.00;;;2.00;;
54235;SDS011;40151;43.606;1.472;2023-07-13T01:27:04;4.60;;;1.85;;
54235;SDS011;40151;43.606;1.472;2023-07-13T01:29:31;4.15;;;1.77;;
54235;SDS011;40151;43.606;1.472;2023-07-13T01:31:58;3.17;;;1.95;;
54235;SDS011;40151;43.606;1.472;2023-07-13T01:34:25;4.15;;;1.60;;
54235;SDS011;40151;43.606;1.472;2023-07-13T01:36:51;4.07;;;1.88;;
54235;SDS011;40151;43.606;1.472;2023-07-13T01:39:19;4.38;;;1.70;;
54235;SDS011;40151;43.606;1.472;2023-07-13T01:41:46;2.85;;;1.52;;
54235;SDS011;40151;43.606;1.472;2023-07-13T01:44:11;3.78;;;1.63;;
54235;SDS011;40151;43.606;1.472;2023-07-13T01:46:36;3.95;;;1.60;;
54235;SDS011;40151;43.606;1.472;2023-07-13T01:49:02;5.47;;;1.88;;
54235;SDS011;40151;43.606;1.472;2023-07-13T01:51:27;2.60;;;1.60;;
54235;SDS011;40151;43.606;1.472;2023-07-13T01:53:52;3.40;;;1.42;;
54235;SDS011;40151;43.606;1.472;2023-07-13T01:56:18;5.40;;;1.70;;
54235;SDS011;40151;43.606;1.472;2023-07-13T01:58:44;3.40;;;1.42;;
54235;SDS011;40151;43.606;1.472;2023-07-13T02:01:10;3.83;;;1.85;;
54235;SDS011;40151;43.606;1.472;2023-07-13T02:03:36;4.55;;;1.70;;
54235;SDS011;40151;43.606;1.472;2023-07-13T02:06:01;3.72;;;1.65;;
54235;SDS011;40151;43.606;1.472;2023-07-13T02:08:26;3.05;;;1.55;;
54235;SDS011;40151;43.606;1.472;2023-07-13T02:10:52;3.92;;;1.63;;
54235;SDS011;40151;43.606;1.472;2023-07-13T02:13:17;5.43;;;1.60;;
54235;SDS011;40151;43.606;1.472;2023-07-13T02:15:43;4.95;;;1.90;;
54235;SDS011;40151;43.606;1.472;2023-07-13T02:18:08;5.40;;;1.70;;
54235;SDS011;40151;43.606;1.472;2023-07-13T02:20:34;6.25;;;2.10;;
54235;SDS011;40151;43.606;1.472;2023-07-13T02:23:00;4.57;;;1.80;;
54235;SDS011;40151;43.606;1.472;2023-07-13T02:25:25;4.57;;;1.60;;
54235;SDS011;40151;43.606;1.472;2023-07-13T02:27:51;4.05;;;1.90;;
54235;SDS011;40151;43.606;1.472;2023-07-13T02:30:17;4.88;;;1.75;;
54235;SDS011;40151;43.606;1.472;2023-07-13T02:32:43;3.85;;;1.83;;
54235;SDS011;40151;43.606;1.472;2023-07-13T02:35:09;3.63;;;1.67;;
54235;SDS011;40151;43.606;1.472;2023-07-13T02:37:35;5.30;;;1.80;;
54235;SDS011;40151;43.606;1.472;2023-07-13T02:40:00;6.00;;;2.15;;
54235;SDS011;40151;43.606;1.472;2023-07-13T02:42:28;4.88;;;1.98;;
54235;SDS011;40151;43.606;1.472;2023-07-13T02:44:53;4.22;;;1.80;;
54235;SDS011;40151;43.606;1.472;2023-07-13T02:47:19;3.33;;;1.70;;
54235;SDS011;40151;43.606;1.472;2023-07-13T02:49:44;5.28;;;1.77;;
54235;SDS011;40151;43.606;1.472;2023-07-13T02:52:09;4.35;;;1.60;;
54235;SDS011;40151;43.606;1.472;2023-07-13T02:54:35;3.92;;;1.60;;
54235;SDS011;40151;43.606;1.472;2023-07-13T02:57:00;4.22;;;1.50;;
54235;SDS011;40151;43.606;1.472;2023-07-13T02:59:25;4.35;;;1.70;;
54235;SDS011;40151;43.606;1.472;2023-07-13T03:01:51;3.65;;;1.70;;
54235;SDS011;40151;43.606;1.472;2023-07-13T03:04:17;4.45;;;1.75;;
54235;SDS011;40151;43.606;1.472;2023-07-13T03:06:44;4.47;;;1.65;;
54235;SDS011;40151;43.606;1.472;2023-07-13T03:09:10;4.75;;;1.70;;
54235;SDS011;40151;43.606;1.472;2023-07-13T03:11:37;7.28;;;1.85;;
54235;SDS011;40151;43.606;1.472;2023-07-13T03:14:03;4.18;;;1.73;;
54235;SDS011;40151;43.606;1.472;2023-07-13T03:16:28;3.85;;;1.63;;
54235;SDS011;40151;43.606;1.472;2023-07-13T03:18:54;5.15;;;1.70;;
54235;SDS011;40151;43.606;1.472;2023-07-13T03:21:20;3.80;;;1.70;;
54235;SDS011;40151;43.606;1.472;2023-07-13T03:23:46;5.20;;;1.60;;
54235;SDS011;40151;43.606;1.472;2023-07-13T03:26:13;5.85;;;1.70;;
54235;SDS011;40151;43.606;1.472;2023-07-13T03:28:41;5.03;;;1.98;;
54235;SDS011;40151;43.606;1.472;2023-07-13T03:31:08;4.85;;;1.90;;
54235;SDS011;40151;43.606;1.472;2023-07-13T03:33:35;5.05;;;1.83;;
54235;SDS011;40151;43.606;1.472;2023-07-13T03:36:02;4.63;;;1.70;;
54235;SDS011;40151;43.606;1.472;2023-07-13T03:38:29;5.10;;;1.67;;
54235;SDS011;40151;43.606;1.472;2023-07-13T03:40:54;4.45;;;1.73;;
54235;SDS011;40151;43.606;1.472;2023-07-13T03:43:20;5.35;;;1.48;;
54235;SDS011;40151;43.606;1.472;2023-07-13T03:45:46;5.75;;;1.85;;
54235;SDS011;40151;43.606;1.472;2023-07-13T03:48:12;5.32;;;1.85;;
54235;SDS011;40151;43.606;1.472;2023-07-13T03:50:38;3.67;;;1.65;;
54235;SDS011;40151;43.606;1.472;2023-07-13T03:53:03;4.60;;;1.77;;
54235;SDS011;40151;43.606;1.472;2023-07-13T03:55:29;5.05;;;2.15;;
54235;SDS011;40151;43.606;1.472;2023-07-13T03:58:01;5.65;;;1.50;;
54235;SDS011;40151;43.606;1.472;2023-07-13T04:00:59;4.75;;;1.60;;
54235;SDS011;40151;43.606;1.472;2023-07-13T04:03:25;6.22;;;1.73;;
54235;SDS011;40151;43.606;1.472;2023-07-13T04:05:53;5.00;;;1.90;;
54235;SDS011;40151;43.606;1.472;2023-07-13T04:08:28;6.85;;;1.80;;
54235;SDS011;40151;43.606;1.472;2023-07-13T04:10:55;5.57;;;1.35;;
54235;SDS011;40151;43.606;1.472;2023-07-13T04:13:21;4.57;;;1.27;;
54235;SDS011;40151;43.606;1.472;2023-07-13T04:15:46;4.07;;;1.40;;
54235;SDS011;40151;43.606;1.472;2023-07-13T04:18:11;5.28;;;1.50;;
54235;SDS011;40151;43.606;1.472;2023-07-13T04:20:37;4.18;;;1.70;;
54235;SDS011;40151;43.606;1.472;2023-07-13T04:23:02;7.05;;;2.00;;
54235;SDS011;40151;43.606;1.472;2023-07-13T04:25:28;6.25;;;1.90;;
54235;SDS011;40151;43.606;1.472;2023-07-13T04:27:53;4.15;;;1.40;;
54235;SDS011;40151;43.606;1.472;2023-07-13T04:30:19;5.53;;;1.88;;
54235;SDS011;40151;43.606;1.472;2023-07-13T04:32:45;5.75;;;1.67;;
54235;SDS011;40151;43.606;1.472;2023-07-13T04:35:10;4.75;;;1.83;;
54235;SDS011;40151;43.606;1.472;2023-07-13T04:37:36;4.40;;;1.50;;
54235;SDS011;40151;43.606;1.472;2023-07-13T04:40:02;3.70;;;1.50;;
54235;SDS011;40151;43.606;1.472;2023-07-13T04:42:28;5.18;;;2.10;;
54235;SDS011;40151;43.606;1.472;2023-07-13T04:44:54;5.88;;;1.58;;
54235;SDS011;40151;43.606;1.472;2023-07-13T04:47:19;5.90;;;1.90;;
54235;SDS011;40151;43.606;1.472;2023-07-13T04:49:45;4.18;;;1.58;;
54235;SDS011;40151;43.606;1.472;2023-07-13T04:52:10;4.75;;;1.45;;
54235;SDS011;40151;43.606;1.472;2023-07-13T04:54:36;4.43;;;1.48;;
54235;SDS011;40151;43.606;1.472;2023-07-13T04:57:02;3.60;;;1.73;;
54235;SDS011;40151;43.606;1.472;2023-07-13T04:59:31;5.30;;;1.90;;
54235;SDS011;40151;43.606;1.472;2023-07-13T05:01:57;4.88;;;1.60;;
54235;SDS011;40151;43.606;1.472;2023-07-13T05:04:23;3.53;;;1.70;;
54235;SDS011;40151;43.606;1.472;2023-07-13T05:06:48;7.20;;;1.98;;
54235;SDS011;40151;43.606;1.472;2023-07-13T05:09:13;4.20;;;1.45;;
54235;SDS011;40151;43.606;1.472;2023-07-13T05:11:39;7.78;;;1.45;;
54235;SDS011;40151;43.606;1.472;2023-07-13T05:14:04;3.53;;;1.55;;
54235;SDS011;40151;43.606;1.472;2023-07-13T05:16:30;5.53;;;1.98;;
54235;SDS011;40151;43.606;1.472;2023-07-13T05:18:56;6.43;;;2.40;;
54235;SDS011;40151;43.606;1.472;2023-07-13T05:21:22;4.30;;;1.27;;
54235;SDS011;40151;43.606;1.472;2023-07-13T05:23:47;5.22;;;1.45;;
54235;SDS011;40151;43.606;1.472;2023-07-13T05:26:13;3.80;;;1.60;;
54235;SDS011;40151;43.606;1.472;2023-07-13T05:28:38;4.78;;;1.50;;
54235;SDS011;40151;43.606;1.472;2023-07-13T05:31:05;4.40;;;1.40;;
54235;SDS011;40151;43.606;1.472;2023-07-13T05:33:32;4.40;;;1.38;;
54235;SDS011;40151;43.606;1.472;2023-07-13T05:35:57;5.55;;;1.52;;
54235;SDS011;40151;43.606;1.472;2023-07-13T05:38:25;7.15;;;1.60;;
54235;SDS011;40151;43.606;1.472;2023-07-13T05:40:52;7.63;;;1.73;;
54235;SDS011;40151;43.606;1.472;2023-07-13T05:43:20;4.18;;;1.40;;
54235;SDS011;40151;43.606;1.472;2023-07-13T05:45:45;3.60;;;1.50;;
54235;SDS011;40151;43.606;1.472;2023-07-13T05:48:11;3.42;;;1.30;;
54235;SDS011;40151;43.606;1.472;2023-07-13T05:50:36;5.20;;;1.85;;
54235;SDS011;40151;43.606;1.472;2023-07-13T05:53:02;3.35;;;1.00;;
54235;SDS011;40151;43.606;1.472;2023-07-13T05:55:27;3.53;;;1.27;;
54235;SDS011;40151;43.606;1.472;2023-07-13T05:57:53;4.57;;;1.20;;
54235;SDS011;40151;43.606;1.472;2023-07-13T06:00:18;4.80;;;1.30;;
54235;SDS011;40151;43.606;1.472;2023-07-13T06:02:44;3.90;;;1.23;;
54235;SDS011;40151;43.606;1.472;2023-07-13T06:05:09;4.22;;;1.20;;
54235;SDS011;40151;43.606;1.472;2023-07-13T06:07:35;2.83;;;1.02;;
54235;SDS011;40151;43.606;1.472;2023-07-13T06:10:00;3.45;;;0.98;;
54235;SDS011;40151;43.606;1.472;2023-07-13T06:12:27;4.32;;;1.40;;
54235;SDS011;40151;43.606;1.472;2023-07-13T06:14:52;3.08;;;1.13;;
54235;SDS011;40151;43.606;1.472;2023-07-13T06:17:18;5.05;;;1.55;;
54235;SDS011;40151;43.606;1.472;2023-07-13T06:19:43;4.45;;;1.48;;
54235;SDS011;40151;43.606;1.472;2023-07-13T06:22:09;4.20;;;1.40;;
54235;SDS011;40151;43.606;1.472;2023-07-13T06:24:34;5.93;;;1.60;;
54235;SDS011;40151;43.606;1.472;2023-07-13T06:27:00;4.13;;;1.35;;
54235;SDS011;40151;43.606;1.472;2023-07-13T06:29:25;5.25;;;1.65;;
54235;SDS011;40151;43.606;1.472;2023-07-13T06:31:50;6.00;;;1.73;;
54235;SDS011;40151;43.606;1.472;2023-07-13T06:34:16;5.18;;;1.50;;
54235;SDS011;40151;43.606;1.472;2023-07-13T06:36:41;3.63;;;1.17;;
54235;SDS011;40151;43.606;1.472;2023-07-13T06:39:07;5.15;;;1.40;;
54235;SDS011;40151;43.606;1.472;2023-07-13T06:41:32;4.95;;;1.45;;
54235;SDS011;40151;43.606;1.472;2023-07-13T06:43:59;6.70;;;1.42;;
54235;SDS011;40151;43.606;1.472;2023-07-13T06:46:24;5.03;;;1.73;;
54235;SDS011;40151;43.606;1.472;2023-07-13T06:48:50;5.53;;;1.30;;
54235;SDS011;40151;43.606;1.472;2023-07-13T06:51:18;4.18;;;1.15;;
54235;SDS011;40151;43.606;1.472;2023-07-13T06:53:44;3.03;;;1.30;;
54235;SDS011;40151;43.606;1.472;2023-07-13T06:56:10;4.30;;;1.40;;
54235;SDS011;40151;43.606;1.472;2023-07-13T06:58:36;4.28;;;1.20;;
54235;SDS011;40151;43.606;1.472;2023-07-13T07:01:02;4.95;;;1.40;;
54235;SDS011;40151;43.606;1.472;2023-07-13T07:03:31;4.32;;;1.20;;
54235;SDS011;40151;43.606;1.472;2023-07-13T07:06:01;3.97;;;1.20;;
54235;SDS011;40151;43.606;1.472;2023-07-13T07:08:31;6.45;;;1.13;;
54235;SDS011;40151;43.606;1.472;2023-07-13T07:10:56;3.50;;;1.02;;
54235;SDS011;40151;43.606;1.472;2023-07-13T07:13:22;3.17;;;1.20;;
54235;SDS011;40151;43.606;1.472;2023-07-13T07:15:47;5.60;;;1.05;;
54235;SDS011;40151;43.606;1.472;2023-07-13T07:18:15;2.20;;;1.08;;
54235;SDS011;40151;43.606;1.472;2023-07-13T07:20:40;5.22;;;1.27;;
54235;SDS011;40151;43.606;1.472;2023-07-13T07:23:05;3.83;;;1.20;;
54235;SDS011;40151;43.606;1.472;2023-07-13T07:25:39;5.32;;;1.40;;
54235;SDS011;40151;43.606;1.472;2023-07-13T07:28:07;5.97;;;1.30;;
54235;SDS011;40151;43.606;1.472;2023-07-13T07:30:43;4.78;;;1.25;;
54235;SDS011;40151;43.606;1.472;2023-07-13T07:33:15;4.40;;;1.15;;
54235;SDS011;40151;43.606;1.472;2023-07-13T07:35:41;4.88;;;1.30;;
54235;SDS011;40151;43.606;1.472;2023-07-13T07:38:07;3.92;;;1.48;;
54235;SDS011;40151;43.606;1.472;2023-07-13T07:40:36;5.97;;;1.58;;
54235;SDS011;40151;43.606;1.472;2023-07-13T07:43:02;3.67;;;1.58;;
54235;SDS011;40151;43.606;1.472;2023-07-13T07:45:27;4.18;;;1.23;;
54235;SDS011;40151;43.606;1.472;2023-07-13T07:47:53;4.88;;;1.05;;
54235;SDS011;40151;43.606;1.472;2023-07-13T07:50:20;4.90;;;1.13;;
54235;SDS011;40151;43.606;1.472;2023-07-13T07:52:45;4.60;;;1.30;;
54235;SDS011;40151;43.606;1.472;2023-07-13T07:55:10;5.63;;;1.73;;
54235;SDS011;40151;43.606;1.472;2023-07-13T07:57:36;5.15;;;1.55;;
54235;SDS011;40151;43.606;1.472;2023-07-13T08:00:01;4.20;;;1.35;;
54235;SDS011;40151;43.606;1.472;2023-07-13T08:02:27;4.70;;;1.48;;
54235;SDS011;40151;43.606;1.472;2023-07-13T08:04:53;5.28;;;1.80;;
54235;SDS011;40151;43.606;1.472;2023-07-13T08:07:18;5.13;;;1.23;;
54235;SDS011;40151;43.606;1.472;2023-07-13T08:09:44;5.80;;;1.85;;
54235;SDS011;40151;43.606;1.472;2023-07-13T08:12:10;3.58;;;1.05;;
54235;SDS011;40151;43.606;1.472;2023-07-13T08:14:35;3.45;;;1.35;;
54235;SDS011;40151;43.606;1.472;2023-07-13T08:17:00;3.97;;;1.30;;
54235;SDS011;40151;43.606;1.472;2023-07-13T08:19:26;4.63;;;1.00;;
54235;SDS011;40151;43.606;1.472;2023-07-13T08:21:51;4.00;;;0.82;;
54235;SDS011;40151;43.606;1.472;2023-07-13T08:24:17;1.90;;;0.82;;
54235;SDS011;40151;43.606;1.472;2023-07-13T08:26:43;3.67;;;1.15;;
54235;SDS011;40151;43.606;1.472;2023-07-13T08:29:10;5.03;;;1.05;;
54235;SDS011;40151;43.606;1.472;2023-07-13T08:31:36;3.75;;;1.02;;
54235;SDS011;40151;43.606;1.472;2023-07-13T08:34:01;4.55;;;1.00;;
54235;SDS011;40151;43.606;1.472;2023-07-13T08:36:27;3.63;;;0.82;;
54235;SDS011;40151;43.606;1.472;2023-07-13T08:38:53;2.88;;;0.85;;
54235;SDS011;40151;43.606;1.472;2023-07-13T08:41:20;4.88;;;0.93;;
54235;SDS011;40151;43.606;1.472;2023-07-13T08:43:47;5.97;;;0.80;;
54235;SDS011;40151;43.606;1.472;2023-07-13T08:48:43;2.90;;;0.80;;
54235;SDS011;40151;43.606;1.472;2023-07-13T08:54:10;4.20;;;0.93;;
54235;SDS011;40151;43.606;1.472;2023-07-13T08:56:43;3.15;;;0.77;;
54235;SDS011;40151;43.606;1.472;2023-07-13T08:59:12;3.42;;;0.75;;
54235;SDS011;40151;43.606;1.472;2023-07-13T09:10:23;2.75;;;0.70;;
54235;SDS011;40151;43.606;1.472;2023-07-13T09:13:06;3.05;;;0.82;;
54235;SDS011;40151;43.606;1.472;2023-07-13T09:15:50;3.25;;;0.98;;
54235;SDS011;40151;43.606;1.472;2023-07-13T09:18:21;6.30;;;0.98;;
54235;SDS011;40151;43.606;1.472;2023-07-13T09:23:22;4.38;;;1.02;;
54235;SDS011;40151;43.606;1.472;2023-07-13T09:25:50;4.00;;;1.05;;
54235;SDS011;40151;43.606;1.472;2023-07-13T09:28:25;5.32;;;1.20;;
54235;SDS011;40151;43.606;1.472;2023-07-13T09:31:34;3.78;;;1.05;;
54235;SDS011;40151;43.606;1.472;2023-07-13T09:33:44;4.97;;;1.10;;
54235;SDS011;40151;43.606;1.472;2023-07-13T09:38:48;5.60;;;1.13;;
54235;SDS011;40151;43.606;1.472;2023-07-13T09:41:23;4.82;;;1.10;;
54235;SDS011;40151;43.606;1.472;2023-07-13T09:44:12;3.58;;;1.05;;
54235;SDS011;40151;43.606;1.472;2023-07-13T09:46:43;5.28;;;1.10;;
54235;SDS011;40151;43.606;1.472;2023-07-13T09:49:11;4.32;;;1.10;;
54235;SDS011;40151;43.606;1.472;2023-07-13T09:51:37;5.00;;;1.08;;
54235;SDS011;40151;43.606;1.472;2023-07-13T09:54:05;8.07;;;1.40;;
54235;SDS011;40151;43.606;1.472;2023-07-13T09:56:30;4.15;;;1.27;;
54235;SDS011;40151;43.606;1.472;2023-07-13T09:58:57;3.92;;;1.02;;
54235;SDS011;40151;43.606;1.472;2023-07-13T10:01:33;5.45;;;1.42;;
54235;SDS011;40151;43.606;1.472;2023-07-13T10:04:12;8.05;;;1.20;;
54235;SDS011;40151;43.606;1.472;2023-07-13T10:06:39;3.75;;;0.98;;
54235;SDS011;40151;43.606;1.472;2023-07-13T10:09:08;6.03;;;1.40;;
54235;SDS011;40151;43.606;1.472;2023-07-13T10:11:35;3.75;;;0.90;;
54235;SDS011;40151;43.606;1.472;2023-07-13T10:14:10;5.05;;;0.90;;
54235;SDS011;40151;43.606;1.472;2023-07-13T10:16:40;4.60;;;1.08;;
54235;SDS011;40151;43.606;1.472;2023-07-13T10:19:19;3.13;;;1.00;;
54235;SDS011;40151;43.606;1.472;2023-07-13T10:21:54;5.43;;;1.17;;
54235;SDS011;40151;43.606;1.472;2023-07-13T10:24:35;4.38;;;1.20;;
54235;SDS011;40151;43.606;1.472;2023-07-13T10:27:16;3.70;;;1.00;;
54235;SDS011;40151;43.606;1.472;2023-07-13T10:29:51;3.13;;;0.80;;
54235;SDS011;40151;43.606;1.472;2023-07-13T10:32:19;3.75;;;1.05;;
54235;SDS011;40151;43.606;1.472;2023-07-13T10:34:48;4.65;;;1.30;;
54235;SDS011;40151;43.606;1.472;2023-07-13T10:37:20;3.30;;;1.00;;
54235;SDS011;40151;43.606;1.472;2023-07-13T10:39:50;5.13;;;1.20;;
54235;SDS011;40151;43.606;1.472;2023-07-13T10:42:25;5.30;;;1.20;;
54235;SDS011;40151;43.606;1.472;2023-07-13T10:44:51;4.10;;;1.02;;
54235;SDS011;40151;43.606;1.472;2023-07-13T10:47:16;3.13;;;1.00;;
54235;SDS011;40151;43.606;1.472;2023-07-13T10:49:43;4.30;;;1.45;;
54235;SDS011;40151;43.606;1.472;2023-07-13T10:52:45;3.05;;;1.00;;
54235;SDS011;40151;43.606;1.472;2023-07-13T10:55:31;3.85;;;1.23;;
54235;SDS011;40151;43.606;1.472;2023-07-13T11:00:50;5.32;;;1.30;;
54235;SDS011;40151;43.606;1.472;2023-07-13T11:03:18;5.30;;;0.98;;
54235;SDS011;40151;43.606;1.472;2023-07-13T11:05:48;2.92;;;1.20;;
54235;SDS011;40151;43.606;1.472;2023-07-13T11:10:49;5.93;;;1.52;;
54235;SDS011;40151;43.606;1.472;2023-07-13T11:16:01;9.50;;;2.80;;
54235;SDS011;40151;43.606;1.472;2023-07-13T11:18:37;17.10;;;7.13;;
54235;SDS011;40151;43.606;1.472;2023-07-13T11:21:13;17.10;;;8.48;;
54235;SDS011;40151;43.606;1.472;2023-07-13T11:23:44;16.38;;;7.88;;
54235;SDS011;40151;43.606;1.472;2023-07-13T11:31:59;22.40;;;15.95;;
54235;SDS011;40151;43.606;1.472;2023-07-13T11:36:57;29.50;;;22.73;;
54235;SDS011;40151;43.606;1.472;2023-07-13T11:39:45;26.08;;;19.85;;
54235;SDS011;40151;43.606;1.472;2023-07-13T11:42:16;23.90;;;17.88;;
54235;SDS011;40151;43.606;1.472;2023-07-13T11:44:46;22.67;;;16.23;;
54235;SDS011;40151;43.606;1.472;2023-07-13T11:47:18;24.15;;;16.23;;
54235;SDS011;40151;43.606;1.472;2023-07-13T11:49:48;23.60;;;15.95;;
54235;SDS011;40151;43.606;1.472;2023-07-13T11:52:18;21.83;;;15.05;;
54235;SDS011;40151;43.606;1.472;2023-07-13T11:54:54;17.60;;;11.80;;
54235;SDS011;40151;43.606;1.472;2023-07-13T11:59:49;15.18;;;11.35;;
54235;SDS011;40151;43.606;1.472;2023-07-13T12:02:39;16.92;;;9.77;;
54235;SDS011;40151;43.606;1.472;2023-07-13T12:05:06;12.95;;;8.73;;
54235;SDS011;40151;43.606;1.472;2023-07-13T12:07:37;15.27;;;10.82;;
54235;SDS011;40151;43.606;1.472;2023-07-13T12:10:20;12.13;;;8.30;;
